createdAt,value
2023-09-17T00:00:00.570Z,56.97
2023-09-17T00:01:02.857Z,57.17
2023-09-17T00:02:06.233Z,57.39
2023-09-17T00:03:09.186Z,57.43
2023-09-17T00:04:12.380Z,57.53
2023-09-17T00:05:14.557Z,57.16
2023-09-17T00:06:18.198Z,57.30
2023-09-17T00:07:21.514Z,57.19
2023-09-17T00:08:24.847Z,57.37
2023-09-17T00:09:26.762Z,56.96
2023-09-17T00:10:29.802Z,57.21
2023-09-17T00:11:31.837Z,57.22
2023-09-17T00:12:34.747Z,57.30
2023-09-17T00:13:36.840Z,57.29
2023-09-17T00:14:39.787Z,57.23
2023-09-17T00:15:41.780Z,57.26
2023-09-17T00:16:43.948Z,57.07
2023-09-17T00:17:47.040Z,57.01
2023-09-17T00:18:49.015Z,57.08
2023-09-17T00:19:51.944Z,57.19
2023-09-17T00:20:53.814Z,56.81
2023-09-17T00:21:56.721Z,57.12
2023-09-17T00:23:01.750Z,57.08
2023-09-17T00:24:05.054Z,57.01
2023-09-17T00:25:07.551Z,56.86
2023-09-17T00:26:10.414Z,57.28
2023-09-17T00:27:14.730Z,57.01
2023-09-17T00:28:18.136Z,56.94
2023-09-17T00:29:20.018Z,57.23
2023-09-17T00:30:34.861Z,57.03
2023-09-17T00:31:38.754Z,57.45
2023-09-17T00:32:43.115Z,57.45
2023-09-17T00:33:45.754Z,57.28
2023-09-17T00:34:48.965Z,57.10
2023-09-17T00:35:50.855Z,57.13
2023-09-17T00:36:53.684Z,57.29
2023-09-17T00:37:55.592Z,57.15
2023-09-17T00:38:59.846Z,57.60
2023-09-17T00:40:02.436Z,57.44
2023-09-17T00:41:05.391Z,57.59
2023-09-17T00:42:07.744Z,57.58
2023-09-17T00:43:10.757Z,57.42
2023-09-17T00:44:12.833Z,57.20
2023-09-17T00:45:17.548Z,57.30
2023-09-17T00:46:20.971Z,57.61
2023-09-17T00:47:24.466Z,57.20
2023-09-17T00:48:27.490Z,57.24
2023-09-17T00:49:30.800Z,57.37
2023-09-17T00:50:33.619Z,57.44
2023-09-17T00:51:36.525Z,57.04
2023-09-17T00:52:39.587Z,57.49
2023-09-17T00:53:44.002Z,58.23
2023-09-17T00:54:49.172Z,57.65
2023-09-17T00:55:52.779Z,57.40
2023-09-17T00:56:55.257Z,57.63
2023-09-17T00:57:59.595Z,57.78
2023-09-17T00:59:04.770Z,57.44
2023-09-17T01:00:10.753Z,57.53
2023-09-17T01:01:14.350Z,57.39
2023-09-17T01:02:19.313Z,57.63
2023-09-17T01:03:22.662Z,57.48
2023-09-17T01:04:25.852Z,57.49
2023-09-17T01:05:37.963Z,57.48
2023-09-17T01:06:41.065Z,57.33
2023-09-17T01:07:44.546Z,57.18
2023-09-17T01:08:47.925Z,57.50
2023-09-17T01:09:51.873Z,57.17
2023-09-17T01:10:59.169Z,57.34
2023-09-17T01:12:02.584Z,57.23
2023-09-17T01:13:06.506Z,57.49
2023-09-17T01:14:16.547Z,57.24
2023-09-17T01:15:20.261Z,57.20
2023-09-17T01:16:24.994Z,57.56
2023-09-17T01:17:28.544Z,57.29
2023-09-17T01:18:30.763Z,57.10
2023-09-17T01:19:33.776Z,57.20
2023-09-17T01:20:44.080Z,57.13
2023-09-17T01:21:53.684Z,57.26
2023-09-17T01:23:00.432Z,57.56
2023-09-17T01:24:23.090Z,57.60
2023-09-17T01:25:35.685Z,57.16
2023-09-17T01:26:42.149Z,57.72
2023-09-17T01:27:45.912Z,57.44
2023-09-17T01:28:48.989Z,57.35
2023-09-17T01:29:51.775Z,57.24
2023-09-17T01:30:54.623Z,57.15
2023-09-17T01:31:56.780Z,57.42
2023-09-17T01:33:02.506Z,57.31
2023-09-17T01:34:04.879Z,57.38
2023-09-17T01:35:08.816Z,57.34
2023-09-17T01:36:17.654Z,57.34
2023-09-17T01:37:25.427Z,57.44
2023-09-17T01:38:33.553Z,57.17
2023-09-17T01:39:43.041Z,57.39
2023-09-17T01:40:49.464Z,57.19
2023-09-17T01:41:52.918Z,57.44
2023-09-17T01:42:58.168Z,57.40
2023-09-17T01:44:01.431Z,57.50
2023-09-17T01:45:06.665Z,57.56
2023-09-17T01:46:10.747Z,57.38
2023-09-17T01:47:13.133Z,57.42
2023-09-17T01:48:16.863Z,57.50
2023-09-17T01:49:20.964Z,57.35
2023-09-17T01:50:26.011Z,57.41
2023-09-17T01:51:30.924Z,57.42
2023-09-17T01:52:34.172Z,57.03
2023-09-17T01:53:37.645Z,57.09
2023-09-17T01:54:39.781Z,57.25
2023-09-17T01:55:44.106Z,56.91
2023-09-17T01:56:46.193Z,57.29
2023-09-17T01:57:49.921Z,56.93
2023-09-17T01:58:53.430Z,56.78
2023-09-17T01:59:56.414Z,57.23
2023-09-17T02:00:58.529Z,57.25
2023-09-17T02:02:00.689Z,56.96
2023-09-17T02:03:04.895Z,57.08
2023-09-17T02:04:06.918Z,56.99
2023-09-17T02:05:11.812Z,57.08
2023-09-17T02:06:14.936Z,57.20
2023-09-17T02:07:18.454Z,57.34
2023-09-17T02:08:21.422Z,56.83
2023-09-17T02:09:23.460Z,57.10
2023-09-17T02:10:26.378Z,57.28
2023-09-17T02:11:29.096Z,57.41
2023-09-17T02:12:31.976Z,57.01
2023-09-17T02:13:34.076Z,57.33
2023-09-17T02:14:39.445Z,57.13
2023-09-17T02:15:42.357Z,57.14
2023-09-17T02:16:45.602Z,56.85
2023-09-17T02:17:47.595Z,56.88
2023-09-17T02:18:52.090Z,57.10
2023-09-17T02:19:53.986Z,56.74
2023-09-17T02:20:56.877Z,57.08
2023-09-17T02:21:58.704Z,56.82
2023-09-17T02:23:01.883Z,56.97
2023-09-17T02:24:04.302Z,56.94
2023-09-17T02:25:08.093Z,56.72
2023-09-17T02:26:10.025Z,56.93
2023-09-17T02:27:12.927Z,56.80
2023-09-17T02:28:14.892Z,57.03
2023-09-17T02:29:17.877Z,57.25
2023-09-17T02:30:21.521Z,57.12
2023-09-17T02:31:25.283Z,57.19
2023-09-17T02:32:27.556Z,57.14
2023-09-17T02:33:31.041Z,57.22
2023-09-17T02:34:33.148Z,57.07
2023-09-17T02:35:36.183Z,56.89
2023-09-17T02:36:39.149Z,56.97
2023-09-17T02:37:42.250Z,57.21
2023-09-17T02:38:44.520Z,56.96
2023-09-17T02:39:47.597Z,57.30
2023-09-17T02:40:49.626Z,57.30
2023-09-17T02:41:53.416Z,56.99
2023-09-17T02:42:55.388Z,57.24
2023-09-17T02:44:00.297Z,57.06
2023-09-17T02:45:06.144Z,57.11
2023-09-17T02:46:10.422Z,57.18
2023-09-17T02:47:12.467Z,57.34
2023-09-17T02:48:15.716Z,57.44
2023-09-17T02:49:18.035Z,57.15
2023-09-17T02:50:21.786Z,57.13
2023-09-17T02:51:23.776Z,57.20
2023-09-17T02:52:27.965Z,57.01
2023-09-17T02:53:29.979Z,57.04
2023-09-17T02:54:33.115Z,57.16
2023-09-17T02:55:35.644Z,57.14
2023-09-17T02:56:39.317Z,57.13
2023-09-17T02:57:41.192Z,57.57
2023-09-17T02:58:47.156Z,57.37
2023-09-17T02:59:50.048Z,57.26
2023-09-17T03:00:53.222Z,57.57
2023-09-17T03:01:56.783Z,57.18
2023-09-17T03:02:59.779Z,57.76
2023-09-17T03:04:01.850Z,57.30
2023-09-17T03:05:05.094Z,57.61
2023-09-17T03:06:09.487Z,57.72
2023-09-17T03:07:12.837Z,57.62
2023-09-17T03:08:16.030Z,57.41
2023-09-17T03:09:23.185Z,57.90
2023-09-17T03:10:27.364Z,57.98
2023-09-17T03:11:31.837Z,57.52
2023-09-17T03:12:36.518Z,57.95
2023-09-17T03:13:41.173Z,57.90
2023-09-17T03:14:43.128Z,57.68
2023-09-17T03:15:46.656Z,57.95
2023-09-17T03:16:49.642Z,57.59
2023-09-17T03:17:56.482Z,57.49
2023-09-17T03:18:58.363Z,58.08
2023-09-17T03:20:01.209Z,58.21
2023-09-17T03:21:06.258Z,57.82
2023-09-17T03:22:09.493Z,57.73
2023-09-17T03:23:12.627Z,57.90
2023-09-17T03:24:17.968Z,57.88
2023-09-17T03:25:20.107Z,57.77
2023-09-17T03:26:26.299Z,58.09
2023-09-17T03:27:28.238Z,58.29
2023-09-17T03:28:31.774Z,57.93
2023-09-17T03:29:33.895Z,58.31
2023-09-17T03:30:36.751Z,58.24
2023-09-17T03:31:42.436Z,58.48
2023-09-17T03:33:01.917Z,58.38
2023-09-17T03:34:09.451Z,57.94
2023-09-17T03:35:13.063Z,58.36
2023-09-17T03:36:16.060Z,58.71
2023-09-17T03:37:18.316Z,58.88
2023-09-17T03:38:20.378Z,58.54
2023-09-17T03:39:23.531Z,58.36
2023-09-17T03:40:25.883Z,58.40
2023-09-17T03:41:28.979Z,58.33
2023-09-17T03:42:30.923Z,58.85
2023-09-17T03:43:35.830Z,58.64
2023-09-17T03:44:37.817Z,58.05
2023-09-17T03:45:39.826Z,58.75
2023-09-17T03:46:42.981Z,58.56
2023-09-17T03:47:45.595Z,58.47
2023-09-17T03:48:48.889Z,58.59
2023-09-17T03:49:52.183Z,58.72
2023-09-17T03:50:55.150Z,58.93
2023-09-17T03:51:57.121Z,58.48
2023-09-17T03:53:04.347Z,58.52
2023-09-17T03:54:06.510Z,58.94
2023-09-17T03:55:10.711Z,58.50
2023-09-17T03:56:13.172Z,58.77
2023-09-17T03:57:15.218Z,59.00
2023-09-17T03:58:18.335Z,59.07
2023-09-17T03:59:20.799Z,58.69
2023-09-17T04:00:25.158Z,58.88
2023-09-17T04:01:27.249Z,58.98
2023-09-17T04:02:30.247Z,58.82
2023-09-17T04:03:33.254Z,58.58
2023-09-17T04:04:36.189Z,58.44
2023-09-17T04:05:39.662Z,58.96
2023-09-17T04:06:42.607Z,58.76
2023-09-17T04:07:46.169Z,58.77
2023-09-17T04:08:49.306Z,58.80
2023-09-17T04:09:51.274Z,59.03
2023-09-17T04:10:55.888Z,59.26
2023-09-17T04:12:03.697Z,59.27
2023-09-17T04:13:07.952Z,58.74
2023-09-17T04:14:09.972Z,58.79
2023-09-17T04:15:17.763Z,58.83
2023-09-17T04:16:24.543Z,58.91
2023-09-17T04:17:28.731Z,58.74
2023-09-17T04:18:31.696Z,59.01
2023-09-17T04:19:35.211Z,58.62
2023-09-17T04:20:37.337Z,58.87
2023-09-17T04:21:40.611Z,58.69
2023-09-17T04:22:44.415Z,58.90
2023-09-17T04:23:46.557Z,58.86
2023-09-17T04:24:50.991Z,58.77
2023-09-17T04:25:55.203Z,59.26
2023-09-17T04:26:58.847Z,59.05
2023-09-17T04:28:00.857Z,58.75
2023-09-17T04:29:05.908Z,58.76
2023-09-17T04:30:08.739Z,58.93
2023-09-17T04:31:12.073Z,58.68
2023-09-17T04:32:14.173Z,58.36
2023-09-17T04:33:17.467Z,58.77
2023-09-17T04:34:19.620Z,58.95
2023-09-17T04:35:22.682Z,58.46
2023-09-17T04:36:25.028Z,58.94
2023-09-17T04:37:28.434Z,58.72
2023-09-17T04:38:33.497Z,58.82
2023-09-17T04:39:35.380Z,58.69
2023-09-17T04:40:38.471Z,58.94
2023-09-17T04:41:44.038Z,58.98
2023-09-17T04:42:48.565Z,58.47
2023-09-17T04:43:55.107Z,58.33
2023-09-17T04:44:58.879Z,58.11
2023-09-17T04:46:01.801Z,58.04
2023-09-17T04:47:08.756Z,58.66
2023-09-17T04:48:11.663Z,58.16
2023-09-17T04:49:15.701Z,58.72
2023-09-17T04:50:17.778Z,58.41
2023-09-17T04:51:22.194Z,58.71
2023-09-17T04:52:28.932Z,58.68
2023-09-17T04:53:32.502Z,58.43
2023-09-17T04:54:34.468Z,58.53
2023-09-17T04:55:40.588Z,58.82
2023-09-17T04:56:42.581Z,58.36
2023-09-17T04:57:45.503Z,58.57
2023-09-17T04:58:50.063Z,58.36
2023-09-17T04:59:53.145Z,58.39
2023-09-17T05:00:55.273Z,58.53
2023-09-17T05:01:58.841Z,58.37
2023-09-17T05:03:01.571Z,58.67
2023-09-17T05:04:05.125Z,58.35
2023-09-17T05:05:09.686Z,58.73
2023-09-17T05:06:12.636Z,58.29
2023-09-17T05:07:16.030Z,58.39
2023-09-17T05:08:20.666Z,58.90
2023-09-17T05:09:23.697Z,58.69
2023-09-17T05:10:27.195Z,58.87
2023-09-17T05:11:30.774Z,58.61
2023-09-17T05:12:33.739Z,58.49
2023-09-17T05:13:36.124Z,58.72
2023-09-17T05:14:40.378Z,58.96
2023-09-17T05:15:45.975Z,58.64
2023-09-17T05:16:48.984Z,58.72
2023-09-17T05:17:51.435Z,58.80
2023-09-17T05:18:55.205Z,58.76
2023-09-17T05:19:57.102Z,58.85
2023-09-17T05:21:02.943Z,58.66
2023-09-17T05:22:04.953Z,58.85
2023-09-17T05:23:09.755Z,58.38
2023-09-17T05:24:13.284Z,58.64
2023-09-17T05:25:16.588Z,58.61
2023-09-17T05:26:22.270Z,59.04
2023-09-17T05:27:25.792Z,58.66
2023-09-17T05:28:28.901Z,58.86
2023-09-17T05:29:31.065Z,58.71
2023-09-17T05:30:35.609Z,58.58
2023-09-17T05:31:37.669Z,59.06
2023-09-17T05:32:39.784Z,58.75
2023-09-17T05:33:42.720Z,58.77
2023-09-17T05:34:45.448Z,58.18
2023-09-17T05:35:49.508Z,58.45
2023-09-17T05:36:51.471Z,58.02
2023-09-17T05:37:54.431Z,58.29
2023-09-17T05:38:58.347Z,58.28
2023-09-17T05:40:02.637Z,58.31
2023-09-17T05:41:05.045Z,57.36
2023-09-17T05:42:08.317Z,58.24
2023-09-17T05:43:10.406Z,58.06
2023-09-17T05:44:14.314Z,58.34
2023-09-17T05:45:16.802Z,57.44
2023-09-17T05:46:19.762Z,57.96
2023-09-17T05:47:22.045Z,58.21
2023-09-17T05:48:25.359Z,58.04
2023-09-17T05:49:27.273Z,58.20
2023-09-17T05:50:30.348Z,57.73
2023-09-17T05:51:32.387Z,57.98
2023-09-17T05:52:35.284Z,58.22
2023-09-17T05:53:37.522Z,58.70
2023-09-17T05:54:40.550Z,58.27
2023-09-17T05:55:44.624Z,58.48
2023-09-17T05:56:47.457Z,58.86
2023-09-17T05:57:50.276Z,58.85
2023-09-17T05:58:53.245Z,59.07
2023-09-17T05:59:55.153Z,58.93
2023-09-17T06:00:58.047Z,59.10
2023-09-17T06:02:00.523Z,59.25
2023-09-17T06:03:04.242Z,59.26
2023-09-17T06:04:10.220Z,59.84
2023-09-17T06:05:13.210Z,59.53
2023-09-17T06:06:20.186Z,59.52
2023-09-17T06:07:23.381Z,59.25
2023-09-17T06:08:29.277Z,59.28
2023-09-17T06:09:34.557Z,59.51
2023-09-17T06:10:39.522Z,59.34
2023-09-17T06:11:42.848Z,59.44
2023-09-17T06:12:48.551Z,59.63
2023-09-17T06:13:50.660Z,59.53
2023-09-17T06:14:53.806Z,60.15
2023-09-17T06:15:55.970Z,59.58
2023-09-17T06:16:58.979Z,59.58
2023-09-17T06:18:01.308Z,59.82
2023-09-17T06:19:04.537Z,59.90
2023-09-17T06:20:07.836Z,60.06
2023-09-17T06:21:10.791Z,59.80
2023-09-17T06:22:12.700Z,59.57
2023-09-17T06:23:15.691Z,59.99
2023-09-17T06:24:20.152Z,59.95
2023-09-17T06:25:24.425Z,60.21
2023-09-17T06:26:26.483Z,60.24
2023-09-17T06:27:31.377Z,60.25
2023-09-17T06:28:35.190Z,60.54
2023-09-17T06:29:38.155Z,60.53
2023-09-17T06:30:40.156Z,60.24
2023-09-17T06:31:43.746Z,59.94
2023-09-17T06:32:46.640Z,60.62
2023-09-17T06:33:50.094Z,60.50
2023-09-17T06:34:52.441Z,60.49
2023-09-17T06:35:55.711Z,60.12
2023-09-17T06:36:57.984Z,60.33
2023-09-17T06:38:01.126Z,59.78
2023-09-17T06:39:05.634Z,60.31
2023-09-17T06:40:11.736Z,60.50
2023-09-17T06:41:15.585Z,60.53
2023-09-17T06:42:18.942Z,60.39
2023-09-17T06:43:22.276Z,60.51
2023-09-17T06:44:26.474Z,61.22
2023-09-17T06:45:31.443Z,61.14
2023-09-17T06:46:34.626Z,61.33
2023-09-17T06:47:36.772Z,61.81
2023-09-17T06:48:39.848Z,61.50
2023-09-17T06:49:41.790Z,61.11
2023-09-17T06:50:46.881Z,61.78
2023-09-17T06:51:50.145Z,61.51
2023-09-17T06:52:53.171Z,61.85
2023-09-17T06:53:55.083Z,61.67
2023-09-17T06:54:57.929Z,61.52
2023-09-17T06:56:00.571Z,62.06
2023-09-17T06:57:03.497Z,61.34
2023-09-17T06:58:05.491Z,61.88
2023-09-17T06:59:09.811Z,62.77
2023-09-17T07:00:12.603Z,62.08
2023-09-17T07:01:15.505Z,61.93
2023-09-17T07:02:18.130Z,62.31
2023-09-17T07:03:21.078Z,62.00
2023-09-17T07:04:23.214Z,61.76
2023-09-17T07:05:26.535Z,62.05
2023-09-17T07:06:28.612Z,62.30
2023-09-17T07:07:31.716Z,61.79
2023-09-17T07:08:33.798Z,61.58
2023-09-17T07:09:36.757Z,61.53
2023-09-17T07:10:38.669Z,61.47
2023-09-17T07:11:41.519Z,61.51
2023-09-17T07:12:44.629Z,62.13
2023-09-17T07:13:47.584Z,62.31
2023-09-17T07:14:50.838Z,61.83
2023-09-17T07:15:53.911Z,61.95
2023-09-17T07:16:55.865Z,61.81
2023-09-17T07:17:58.823Z,62.60
2023-09-17T07:19:00.822Z,62.31
2023-09-17T07:20:05.484Z,62.02
2023-09-17T07:21:07.379Z,62.26
2023-09-17T07:22:13.678Z,62.52
2023-09-17T07:23:15.720Z,62.60
2023-09-17T07:24:18.999Z,61.88
2023-09-17T07:25:21.139Z,62.42
2023-09-17T07:26:24.016Z,62.16
2023-09-17T07:27:26.961Z,62.52
2023-09-17T07:28:30.699Z,62.59
2023-09-17T07:29:32.995Z,62.75
2023-09-17T07:30:38.058Z,63.01
2023-09-17T07:31:42.683Z,62.88
2023-09-17T07:32:45.832Z,62.67
2023-09-17T07:33:47.867Z,63.07
2023-09-17T07:34:50.832Z,62.98
2023-09-17T07:35:53.775Z,62.67
2023-09-17T07:36:56.754Z,62.92
2023-09-17T07:37:58.746Z,62.70
2023-09-17T07:39:01.702Z,62.55
2023-09-17T07:40:08.553Z,62.53
2023-09-17T07:41:11.557Z,63.05
2023-09-17T07:42:14.188Z,63.10
2023-09-17T07:43:19.141Z,63.37
2023-09-17T07:44:21.511Z,63.04
2023-09-17T07:45:24.416Z,63.13
2023-09-17T07:46:27.724Z,63.03
2023-09-17T07:47:30.946Z,63.06
2023-09-17T07:48:33.005Z,62.97
2023-09-17T07:49:37.608Z,62.84
2023-09-17T07:50:41.178Z,63.07
2023-09-17T07:51:44.086Z,63.24
2023-09-17T07:52:46.521Z,63.24
2023-09-17T07:53:49.925Z,63.27
2023-09-17T07:54:52.034Z,63.38
2023-09-17T07:55:57.174Z,63.16
2023-09-17T07:56:59.199Z,63.14
2023-09-17T07:58:02.064Z,63.19
2023-09-17T07:59:04.664Z,63.40
2023-09-17T08:00:09.734Z,63.27
2023-09-17T08:01:18.086Z,63.54
2023-09-17T08:02:22.413Z,63.65
2023-09-17T08:03:24.763Z,63.24
2023-09-17T08:04:26.902Z,63.30
2023-09-17T08:05:29.817Z,63.36
2023-09-17T08:06:35.615Z,63.89
2023-09-17T08:07:38.560Z,63.72
2023-09-17T08:08:40.523Z,63.56
2023-09-17T08:09:43.406Z,63.76
2023-09-17T08:10:45.543Z,64.23
2023-09-17T08:11:51.814Z,63.71
2023-09-17T08:12:53.746Z,63.71
2023-09-17T08:13:56.708Z,63.95
2023-09-17T08:14:58.783Z,63.90
2023-09-17T08:16:01.686Z,64.08
2023-09-17T08:17:07.401Z,63.86
2023-09-17T08:18:12.324Z,64.05
2023-09-17T08:19:14.315Z,64.05
2023-09-17T08:20:17.833Z,63.73
2023-09-17T08:21:19.936Z,64.30
2023-09-17T08:22:23.653Z,64.14
2023-09-17T08:23:26.655Z,64.26
2023-09-17T08:24:29.568Z,64.09
2023-09-17T08:25:31.932Z,64.08
2023-09-17T08:26:43.692Z,63.51
2023-09-17T08:27:48.083Z,63.81
2023-09-17T08:28:51.196Z,63.46
2023-09-17T08:29:53.228Z,63.43
2023-09-17T08:30:59.126Z,63.47
2023-09-17T08:32:01.034Z,62.89
2023-09-17T08:33:10.951Z,63.44
2023-09-17T08:34:14.489Z,63.19
2023-09-17T08:35:17.542Z,63.00
2023-09-17T08:36:22.824Z,62.98
2023-09-17T08:37:25.882Z,62.93
2023-09-17T08:38:27.957Z,62.36
2023-09-17T08:39:31.377Z,62.25
2023-09-17T08:40:35.651Z,62.29
2023-09-17T08:41:41.330Z,62.36
2023-09-17T08:42:44.094Z,62.58
2023-09-17T08:43:48.099Z,62.33
2023-09-17T08:44:52.231Z,62.47
2023-09-17T08:45:56.425Z,62.01
2023-09-17T08:46:59.105Z,62.16
2023-09-17T08:48:02.281Z,62.10
2023-09-17T08:49:04.306Z,61.58
2023-09-17T08:50:12.969Z,61.22
2023-09-17T08:51:19.330Z,61.00
2023-09-17T08:52:24.272Z,60.48
2023-09-17T08:53:32.247Z,60.29
2023-09-17T08:54:41.000Z,59.52
2023-09-17T08:55:48.036Z,59.62
2023-09-17T08:56:52.925Z,59.48
2023-09-17T08:57:58.706Z,59.17
2023-09-17T08:59:08.214Z,59.00
2023-09-17T09:00:16.459Z,59.37
2023-09-17T09:01:21.862Z,59.10
2023-09-17T09:02:30.193Z,59.47
2023-09-17T09:03:36.673Z,59.75
2023-09-17T09:04:39.819Z,59.98
2023-09-17T09:05:45.702Z,59.37
2023-09-17T09:06:48.023Z,58.89
2023-09-17T09:07:53.225Z,59.07
2023-09-17T09:08:56.008Z,58.92
2023-09-17T09:09:59.818Z,58.62
2023-09-17T09:11:02.311Z,58.74
2023-09-17T09:12:21.929Z,58.80
2023-09-17T09:13:24.312Z,58.74
2023-09-17T09:14:27.690Z,59.16
2023-09-17T09:15:30.601Z,58.73
2023-09-17T09:16:37.696Z,58.94
2023-09-17T09:17:40.293Z,59.41
2023-09-17T09:18:43.258Z,59.22
2023-09-17T09:19:45.181Z,59.21
2023-09-17T09:20:49.469Z,59.73
2023-09-17T09:21:51.322Z,59.51
2023-09-17T09:22:54.394Z,59.39
2023-09-17T09:23:58.424Z,59.21
2023-09-17T09:25:01.848Z,58.50
2023-09-17T09:26:05.083Z,58.73
2023-09-17T09:27:11.573Z,59.03
2023-09-17T09:28:13.520Z,58.86
2023-09-17T09:29:16.615Z,59.30
2023-09-17T09:30:19.112Z,59.35
2023-09-17T09:31:22.089Z,59.67
2023-09-17T09:32:24.794Z,59.91
2023-09-17T09:33:28.178Z,59.96
2023-09-17T09:34:30.307Z,58.90
2023-09-17T09:35:33.360Z,58.78
2023-09-17T09:36:37.302Z,58.76
2023-09-17T09:37:42.693Z,59.22
2023-09-17T09:38:44.689Z,59.20
2023-09-17T09:39:47.833Z,58.43
2023-09-17T09:40:49.907Z,58.32
2023-09-17T09:41:52.928Z,58.52
2023-09-17T09:42:54.879Z,59.38
2023-09-17T09:43:58.736Z,58.78
2023-09-17T09:45:00.777Z,58.32
2023-09-17T09:46:05.573Z,58.30
2023-09-17T09:47:09.033Z,58.62
2023-09-17T09:48:15.541Z,59.09
2023-09-17T09:49:18.177Z,58.91
2023-09-17T09:50:25.023Z,58.54
2023-09-17T09:51:28.527Z,58.92
2023-09-17T09:52:32.972Z,58.65
2023-09-17T09:53:34.984Z,58.26
2023-09-17T09:54:37.879Z,58.24
2023-09-17T09:55:40.098Z,57.79
2023-09-17T09:56:43.193Z,58.26
2023-09-17T09:57:46.923Z,58.72
2023-09-17T09:58:51.098Z,58.36
2023-09-17T09:59:53.203Z,58.42
2023-09-17T10:00:56.303Z,58.04
2023-09-17T10:01:58.451Z,57.99
2023-09-17T10:03:00.681Z,58.16
2023-09-17T10:04:06.390Z,58.28
2023-09-17T10:05:11.447Z,59.07
2023-09-17T10:06:14.609Z,58.98
2023-09-17T10:07:18.576Z,58.31
2023-09-17T10:08:24.171Z,58.91
2023-09-17T10:09:26.629Z,58.86
2023-09-17T10:10:29.567Z,58.78
2023-09-17T10:11:32.267Z,59.56
2023-09-17T10:12:36.026Z,59.46
2023-09-17T10:13:38.311Z,58.80
2023-09-17T10:14:42.926Z,57.99
2023-09-17T10:15:45.064Z,57.44
2023-09-17T10:16:49.013Z,58.02
2023-09-17T10:17:51.383Z,57.51
2023-09-17T10:18:58.261Z,57.40
2023-09-17T10:20:01.615Z,57.34
2023-09-17T10:21:05.828Z,57.26
2023-09-17T10:22:10.444Z,56.99
2023-09-17T10:23:16.473Z,57.06
2023-09-17T10:24:20.512Z,56.95
2023-09-17T10:25:25.600Z,57.14
2023-09-17T10:26:33.904Z,56.59
2023-09-17T10:27:38.750Z,57.31
2023-09-17T10:28:41.835Z,57.20
2023-09-17T10:29:48.370Z,56.68
2023-09-17T10:30:52.431Z,56.45
2023-09-17T10:31:57.292Z,56.77
2023-09-17T10:33:00.047Z,57.41
2023-09-17T10:34:04.630Z,56.85
2023-09-17T10:35:08.375Z,56.47
2023-09-17T10:36:11.834Z,57.59
2023-09-17T10:37:17.785Z,57.20
2023-09-17T10:38:23.695Z,56.80
2023-09-17T10:39:28.501Z,57.33
2023-09-17T10:40:32.756Z,56.57
2023-09-17T10:41:38.076Z,56.58
2023-09-17T10:42:41.768Z,56.80
2023-09-17T10:43:46.782Z,55.48
2023-09-17T10:44:54.057Z,54.94
2023-09-17T10:45:57.671Z,55.73
2023-09-17T10:47:03.547Z,55.93
2023-09-17T10:48:07.549Z,55.87
2023-09-17T10:49:12.388Z,56.29
2023-09-17T10:50:16.270Z,56.36
2023-09-17T10:51:19.796Z,55.77
2023-09-17T10:52:22.949Z,55.80
2023-09-17T10:53:27.977Z,55.96
2023-09-17T10:54:31.220Z,55.88
2023-09-17T10:55:38.953Z,55.12
2023-09-17T10:56:43.757Z,55.54
2023-09-17T10:57:53.776Z,54.64
2023-09-17T10:58:55.869Z,55.12
2023-09-17T11:00:01.090Z,56.39
2023-09-17T11:01:04.078Z,55.97
2023-09-17T11:02:09.659Z,55.64
2023-09-17T11:03:16.333Z,55.08
2023-09-17T11:04:22.807Z,53.96
2023-09-17T11:05:28.415Z,53.77
2023-09-17T11:06:35.833Z,55.01
2023-09-17T11:07:40.193Z,53.48
2023-09-17T11:08:44.838Z,53.25
2023-09-17T11:09:48.589Z,53.17
2023-09-17T11:10:51.737Z,52.73
2023-09-17T11:11:53.821Z,53.16
2023-09-17T11:12:56.895Z,53.86
2023-09-17T11:13:59.249Z,54.20
2023-09-17T11:15:02.335Z,54.02
2023-09-17T11:16:04.434Z,54.61
2023-09-17T11:17:11.455Z,55.20
2023-09-17T11:18:17.751Z,55.11
2023-09-17T11:19:23.598Z,54.43
2023-09-17T11:20:25.907Z,54.57
2023-09-17T11:21:29.069Z,54.84
2023-09-17T11:22:36.820Z,54.61
2023-09-17T11:23:48.067Z,55.26
2023-09-17T11:24:51.530Z,55.39
2023-09-17T11:25:57.801Z,54.53
2023-09-17T11:27:02.427Z,54.60
2023-09-17T11:28:12.908Z,54.66
2023-09-17T11:29:15.935Z,54.72
2023-09-17T11:30:20.520Z,54.23
2023-09-17T11:31:24.487Z,54.21
2023-09-17T11:32:27.514Z,53.83
2023-09-17T11:33:30.861Z,52.32
2023-09-17T11:34:35.258Z,51.91
2023-09-17T11:35:40.764Z,51.33
2023-09-17T11:36:42.684Z,50.98
2023-09-17T11:37:45.946Z,51.47
2023-09-17T11:38:48.778Z,51.74
2023-09-17T11:39:53.984Z,52.22
2023-09-17T11:41:03.847Z,51.66
2023-09-17T11:42:08.565Z,51.15
2023-09-17T11:43:15.029Z,50.43
2023-09-17T11:44:17.334Z,50.08
2023-09-17T11:45:20.445Z,50.00
2023-09-17T11:46:24.293Z,50.64
2023-09-17T11:47:29.666Z,49.77
2023-09-17T11:48:34.553Z,50.00
2023-09-17T11:49:41.788Z,49.40
2023-09-17T11:50:43.700Z,49.67
2023-09-17T11:51:48.130Z,49.10
2023-09-17T11:53:07.488Z,49.05
2023-09-17T11:54:16.327Z,49.32
2023-09-17T11:55:24.368Z,49.68
2023-09-17T11:56:29.344Z,49.48
2023-09-17T11:57:31.247Z,49.63
2023-09-17T11:58:36.272Z,49.33
2023-09-17T11:59:39.356Z,50.31
2023-09-17T12:00:42.592Z,51.55
2023-09-17T12:01:48.394Z,51.07
2023-09-17T12:02:51.590Z,51.73
2023-09-17T12:03:55.273Z,52.69
2023-09-17T12:05:00.441Z,52.60
2023-09-17T12:06:02.553Z,52.40
2023-09-17T12:07:10.158Z,52.38
2023-09-17T12:08:12.729Z,52.21
2023-09-17T12:09:22.350Z,51.29
2023-09-17T12:10:30.244Z,52.27
2023-09-17T12:11:33.277Z,52.08
2023-09-17T12:12:37.042Z,51.77
2023-09-17T12:13:39.939Z,52.08
2023-09-17T12:14:42.617Z,50.84
2023-09-17T12:15:45.634Z,51.36
2023-09-17T12:16:48.759Z,51.91
2023-09-17T12:17:52.781Z,52.48
2023-09-17T12:19:03.760Z,52.91
2023-09-17T12:20:34.585Z,53.45
2023-09-17T12:21:40.648Z,51.20
2023-09-17T12:22:55.613Z,51.01
2023-09-17T12:23:58.610Z,51.33
2023-09-17T12:25:07.041Z,51.86
2023-09-17T12:26:10.400Z,51.99
2023-09-17T12:27:26.101Z,52.11
2023-09-17T12:28:28.940Z,50.70
2023-09-17T12:29:31.848Z,51.38
2023-09-17T12:30:33.901Z,51.38
2023-09-17T12:31:38.186Z,51.82
2023-09-17T12:32:40.295Z,52.49
2023-09-17T12:33:44.475Z,51.90
2023-09-17T12:34:49.391Z,51.81
2023-09-17T12:35:53.494Z,51.72
2023-09-17T12:36:55.372Z,51.51
2023-09-17T12:37:58.527Z,50.47
2023-09-17T12:39:01.466Z,50.34
2023-09-17T12:40:08.476Z,50.47
2023-09-17T12:41:13.797Z,50.29
2023-09-17T12:42:16.488Z,49.95
2023-09-17T12:43:19.384Z,49.79
2023-09-17T12:44:21.335Z,48.84
2023-09-17T12:45:24.721Z,49.10
2023-09-17T12:46:27.992Z,48.78
2023-09-17T12:47:33.790Z,49.17
2023-09-17T12:48:36.156Z,49.67
2023-09-17T12:49:39.341Z,49.49
2023-09-17T12:50:44.056Z,50.03
2023-09-17T12:51:47.145Z,50.53
2023-09-17T12:52:49.177Z,50.81
2023-09-17T12:53:52.771Z,50.28
2023-09-17T12:54:58.396Z,49.33
2023-09-17T12:56:02.492Z,49.17
2023-09-17T12:57:07.013Z,49.41
2023-09-17T12:58:10.075Z,49.74
2023-09-17T12:59:12.139Z,49.28
2023-09-17T13:00:16.625Z,49.53
2023-09-17T13:01:18.850Z,49.51
2023-09-17T13:02:29.664Z,49.49
2023-09-17T13:03:32.105Z,50.23
2023-09-17T13:04:37.611Z,51.00
2023-09-17T13:05:39.723Z,52.58
2023-09-17T13:06:42.682Z,51.35
2023-09-17T13:07:44.782Z,50.36
2023-09-17T13:08:49.246Z,50.11
2023-09-17T13:09:55.919Z,50.20
2023-09-17T13:11:01.152Z,49.11
2023-09-17T13:12:03.533Z,48.82
2023-09-17T13:13:08.513Z,48.88
2023-09-17T13:14:10.596Z,49.33
2023-09-17T13:15:13.595Z,48.36
2023-09-17T13:16:17.160Z,47.90
2023-09-17T13:17:19.573Z,48.49
2023-09-17T13:18:22.834Z,48.84
2023-09-17T13:19:24.781Z,49.28
2023-09-17T13:20:28.349Z,49.70
2023-09-17T13:21:31.416Z,49.39
2023-09-17T13:22:36.921Z,49.23
2023-09-17T13:23:39.535Z,48.81
2023-09-17T13:24:42.643Z,47.99
2023-09-17T13:25:45.461Z,47.86
2023-09-17T13:26:48.835Z,48.27
2023-09-17T13:27:50.820Z,47.44
2023-09-17T13:28:55.592Z,48.97
2023-09-17T13:29:57.681Z,48.08
2023-09-17T13:31:02.126Z,48.88
2023-09-17T13:32:05.492Z,48.84
2023-09-17T13:33:08.507Z,47.22
2023-09-17T13:34:11.509Z,47.47
2023-09-17T13:35:14.775Z,47.92
2023-09-17T13:36:18.822Z,47.18
2023-09-17T13:37:22.161Z,46.38
2023-09-17T13:38:24.211Z,46.96
2023-09-17T13:39:27.282Z,46.89
2023-09-17T13:40:29.340Z,45.70
2023-09-17T13:41:32.226Z,45.64
2023-09-17T13:42:34.548Z,46.02